Terminal Aerodrome Forecast
Issued by NWS

Home | Current Version | Previous Version | Graphics & Text | Print | Product List | Glossary On
Versions: 1 2 3 4 5 6 7 8 9 10 11 12 13 14 15 16 17 18 19 20 21 22 23 24 25 26
922
FTUS43 KLOT 242104 AAB
TAFORD
TAF AMD
KORD 242104Z 2421/2524 08009KT P6SM SCT060
     FM250200 12006KT P6SM SCT060
     FM251200 15008KT P6SM VCSH BKN050
     FM251500 15011KT P6SM BKN070
     FM252300 19008KT P6SM SCT050 BKN100=

USA.gov is the U.S. government's official web portal to all federal, state and local government web resources and services.